• Join FlightAware (Why Join?)
  • Login
  • US Flag 
09:37AM EDT


 

Airport Tracker/Info


-or-


 

Live Flight TrackerFlight Track Log ✈ SWA2322 ✈ 16-Apr-2013 ✈ KCHS - KBWI

Flight Track Log - Related Links

Times and Time Zones

All times are in EDT time to prevent confusion due to time zone crossing. See the SWA2322 flight status page for this flight to view local times or setup timezone preferences in your user account.

Time Position Orientation Groundspeed Altitude Reporting Facility
EDT Latitude Longitude Course Direction KTS MPH feet Rate Location/Type
08:23AM 33.0517 -79.9931 13° North 264 304 7,000  Level Jacksonville Center
08:24AM 33.1283 -79.9681 15° North 270 311 10,900 3,300 Climbing Jacksonville Center
08:25AM 33.2217 -79.9428 13° North 304 350 13,600 3,180 Climbing Jacksonville Center
08:26AM 33.3172 -79.9147 14° North 335 386 17,300 3,120 Climbing Jacksonville Center
08:27AM 33.4111 -79.8745 North  Level FlightAware Approximate
08:27AM 33.4228 -79.8864 13° North 361 415 19,900  Level Jacksonville Center
08:28AM 33.5003 -79.8523 13° North  Level FlightAware Approximate
08:28AM 33.5267 -79.8581 13° North 373 429 22,800  Level Jacksonville Center
08:29AM 33.6364 -79.8292 12° North 390 449 25,300 2,280 Climbing Jacksonville Center
08:30AM 33.7503 -79.7953 14° North 405 466 27,400 2,100 Climbing Jacksonville Center
08:31AM 33.8661 -79.7511 18° North 421 484 29,500 1,980 Climbing Jacksonville Center
08:32AM 33.9681 -79.6550 38° Northeast 433 498 31,400 2,100 Climbing Jacksonville Center
08:33AM 34.0656 -79.5536 41° Northeast 450 518 33,700 2,160 Climbing Jacksonville Center
08:34AM 34.1608 -79.4544 41° Northeast 455 524 35,800 1,500 Climbing Jacksonville Center
08:36AM 34.3772 -79.2306 40° Northeast 433 498 38,600 960 Climbing Washington Center
08:37AM 34.4742 -79.1314 40° Northeast 445 512 39,000 -300 Climbing Washington Center
08:38AM 34.5667 -79.0344 41° Northeast 445 512 38,000 -1,020 Descending Washington Center
08:39AM 34.6569 -78.9425 40° Northeast 440 506 37,000 -960 Descending Washington Center
08:40AM 34.7472 -78.8475 41° Northeast 434 499 36,100 -960 Descending Washington Center
08:41AM 34.8375 -78.7525 41° Northeast 428 493 35,100 -600 Descending Washington Center
08:42AM 34.9317 -78.6575 40° Northeast 428 493 35,000 -60 Descending Washington Center
08:43AM 35.0131 -78.5692 42° Northeast 428 493 35,000 -480 Level Washington Center
08:44AM 35.1053 -78.4711 41° Northeast 428 493 34,100 -960 Descending Washington Center
08:45AM 35.1994 -78.3703 41° Northeast 433 498 33,100 -1,500 Descending Washington Center
08:46AM 35.2936 -78.2717 41° Northeast 433 498 31,100 -1,080 Descending Washington Center
08:47AM 35.3897 -78.1678 41° Northeast 443 510 31,000 -60 Descending Washington Center
08:48AM 35.5017 -78.1050 25° Northeast 443 510 31,000 -180 Level Washington Center
08:49AM 35.6194 -78.0603 17° North 431 496 30,700 -1,020 Descending Washington Center
08:50AM 35.7392 -78.0181 16° North 436 502 29,000 -900 Descending Washington Center
08:51AM 35.8569 -77.9728 17° North 436 502 29,000  Level Washington Center
08:52AM 35.9747 -77.9275 17° North 436 502 29,000  Level Washington Center
08:53AM 36.0903 -77.8847 17° North 442 509 29,000  Level Washington Center
08:54AM 36.2103 -77.8367 18° North 442 509 29,000  Level Washington Center
08:55AM 36.3300 -77.7886 18° North 442 509 29,000  Level Washington Center
08:56AM 36.4478 -77.7403 18° North 442 509 29,000  Level Washington Center
08:57AM 36.5717 -77.6944 17° North 447 514 29,000  Level Washington Center
08:58AM 36.6914 -77.6461 18° North 447 514 29,000  Level Washington Center
08:59AM 36.8131 -77.5972 18° North 447 514 29,000  Level Washington Center
09:00AM 36.9392 -77.5486 17° North 452 520 29,000  Level Washington Center
09:01AM 37.0611 -77.4969 19° North 452 520 29,000  Level Washington Center
09:02AM 37.1828 -77.4531 16° North 452 520 29,000 -780 Level Washington Center
09:03AM 37.3022 -77.4039 18° North 452 520 27,500 -2,100 Descending Washington Center
09:04AM 37.4200 -77.3542 19° North 447 514 24,800 -2,280 Descending Washington Center
09:05AM 37.5331 -77.3150 15° North 435 501 23,000 -900 Descending Washington Center
09:06AM 37.6439 -77.2914 10° North 415 478 23,000  Level Washington Center
09:07AM 37.7592 -77.2675 North 415 478 23,000  Level Washington Center
09:08AM 37.8719 -77.2439 North 410 472 23,000  Level Washington Center
09:09AM 37.9869 -77.2200 North 410 472 23,000 -960 Level Washington Center
09:10AM 38.1103 -77.1936 10° North 410 472 21,100 -2,040 Descending Washington Center
09:11AM 38.2067 -77.1719 10° North 405 466 19,000 -2,160 Descending Washington Center
09:12AM 38.3133 -77.1503 North 398 458 16,800 -2,040 Descending Washington Center
09:13AM 38.4097 -77.1047 20° North 386 444 15,000 -1,980 Descending Washington Center
09:14AM 38.4839 -77.0158 43° Northeast 357 411 12,900 -1,620 Descending Washington Center
09:15AM 38.5558 -76.9269 44° Northeast 357 411 11,800 -960 Descending Washington Center
09:16AM 38.6150 -76.8511 45° Northeast 330 380 11,000 -1,020 Descending Washington Center
09:17AM 38.6739 -76.7803 43° Northeast 303 349 9,800 -1,080 Descending Washington Center
09:18AM 38.7228 -76.7011 52° Northeast 281 323 8,900 -1,380 Descending Washington Center
09:20AM 38.8000 -76.5500 57° Northeast 297 342 6,300 -1,080 Descending Potomac TRACON
09:21AM 38.8667 -76.5500 360° North 272 313 6,100 -360 Descending Potomac TRACON
09:22AM 38.9333 -76.5833 339° North 271 312 5,600 -600 Descending Potomac TRACON
09:23AM 38.9833 -76.6167 333° Northwest 245 282 5,000 -780 Descending Potomac TRACON
09:24AM 39.0167 -76.6833 303° West 222 255 4,200 -480 Descending Potomac TRACON
09:25AM 39.0500 -76.7500 303° West 218 251 4,100 -480 Descending Potomac TRACON
09:26AM 39.0667 -76.8167 288° West 199 229 3,300 -540 Descending Potomac TRACON
09:27AM 39.0833 -76.8833 288° West 192 221 3,100 -180 Descending Potomac TRACON
09:28AM 39.1167 -76.9333 311° West 209 241 3,000 -60 Descending Potomac TRACON
09:29AM 39.1667 -76.9167 14° North 216 249 3,000 -480 Level Potomac TRACON
09:30AM 39.1833 -76.8500 72° East 181 208 2,100 -660 Descending Potomac TRACON
09:31AM 39.1833 -76.7833 90° East 172 198 1,700 -600 Descending Potomac TRACON
09:32AM 39.1833 -76.7333 90° East 137 158 1,000 -780 Descending Potomac TRACON